createdAt,value
2023-11-11T00:00:21.605Z,8.30
2023-11-11T00:03:09.982Z,8.00
2023-11-11T00:05:38.139Z,8.00
2023-11-11T00:08:06.107Z,7.60
2023-11-11T00:10:34.924Z,8.10
2023-11-11T00:13:04.354Z,7.70
2023-11-11T00:15:34.964Z,8.30
2023-11-11T00:18:03.340Z,9.60
2023-11-11T00:20:31.530Z,10.00
2023-11-11T00:22:59.679Z,9.50
2023-11-11T00:25:27.686Z,9.70
2023-11-11T00:27:55.980Z,9.10
2023-11-11T00:30:24.100Z,9.10
2023-11-11T00:32:55.420Z,10.60
2023-11-11T00:35:23.528Z,15.70
2023-11-11T00:37:51.662Z,12.10
2023-11-11T00:40:19.648Z,10.80
2023-11-11T00:42:47.757Z,9.60
2023-11-11T00:45:16.015Z,9.30
2023-11-11T00:47:44.498Z,8.60
2023-11-11T00:50:12.634Z,9.10
2023-11-11T00:52:40.798Z,9.00
2023-11-11T00:55:09.182Z,9.10
2023-11-11T00:57:37.304Z,9.00
2023-11-11T01:00:06.617Z,8.70
2023-11-11T01:02:34.568Z,9.00
2023-11-11T01:05:02.493Z,9.20
2023-11-11T01:07:31.119Z,9.70
2023-11-11T01:10:00.010Z,9.70
2023-11-11T01:12:28.241Z,9.90
2023-11-11T01:14:56.494Z,9.50
2023-11-11T01:17:24.680Z,9.50
2023-11-11T01:19:52.718Z,9.20
2023-11-11T01:22:20.653Z,10.10
2023-11-11T01:24:49.021Z,9.40
2023-11-11T01:27:17.327Z,10.40
2023-11-11T01:29:45.267Z,10.50
2023-11-11T01:32:13.272Z,9.50
2023-11-11T01:34:41.404Z,9.70
2023-11-11T01:37:09.894Z,10.20
2023-11-11T01:39:38.142Z,9.80
2023-11-11T01:42:06.736Z,9.70
2023-11-11T01:44:34.746Z,10.10
2023-11-11T01:47:07.502Z,10.30
2023-11-11T01:49:36.097Z,11.20
2023-11-11T01:52:06.582Z,10.80
2023-11-11T01:54:36.181Z,10.80
2023-11-11T01:57:06.175Z,10.60
2023-11-11T01:59:36.807Z,10.40
2023-11-11T02:02:05.531Z,11.00
2023-11-11T02:04:34.948Z,11.70
2023-11-11T02:07:03.162Z,13.40
2023-11-11T02:09:31.256Z,16.10
2023-11-11T02:11:59.424Z,17.70
2023-11-11T02:14:27.693Z,15.10
2023-11-11T02:16:56.280Z,15.40
2023-11-11T02:19:24.346Z,15.80
2023-11-11T02:21:52.432Z,13.40
2023-11-11T02:24:22.530Z,12.30
2023-11-11T02:26:51.183Z,11.80
2023-11-11T02:29:19.140Z,9.70
2023-11-11T02:31:47.048Z,9.30
2023-11-11T02:34:15.289Z,10.10
2023-11-11T02:36:53.909Z,9.60
2023-11-11T02:39:28.912Z,10.30
2023-11-11T02:41:56.984Z,9.70
2023-11-11T02:44:26.241Z,9.90
2023-11-11T02:46:54.249Z,9.90
2023-11-11T02:49:22.855Z,10.50
2023-11-11T02:51:50.820Z,10.20
2023-11-11T02:54:18.991Z,9.90
2023-11-11T02:56:47.163Z,10.00
2023-11-11T02:59:15.235Z,10.20
2023-11-11T03:01:43.446Z,10.60
2023-11-11T03:04:13.499Z,11.50
2023-11-11T03:06:45.036Z,9.90
2023-11-11T03:09:13.369Z,10.50
2023-11-11T03:11:41.267Z,9.90
2023-11-11T03:14:09.493Z,10.00
2023-11-11T03:16:38.949Z,9.40
2023-11-11T03:19:08.076Z,10.10
2023-11-11T03:21:36.453Z,10.20
2023-11-11T03:24:06.026Z,9.60
2023-11-11T03:26:34.673Z,9.50
2023-11-11T03:29:03.054Z,9.60
2023-11-11T03:31:31.214Z,9.30
2023-11-11T03:33:59.694Z,9.30
2023-11-11T03:36:28.375Z,9.50
2023-11-11T03:38:56.415Z,9.90
2023-11-11T03:41:24.627Z,9.00
2023-11-11T03:43:53.010Z,8.70
2023-11-11T03:46:21.267Z,9.40
2023-11-11T03:48:49.343Z,9.10
2023-11-11T03:51:17.614Z,9.00
2023-11-11T03:53:45.583Z,9.60
2023-11-11T03:56:13.976Z,9.00
2023-11-11T03:58:42.275Z,8.90
2023-11-11T04:01:10.734Z,8.80
2023-11-11T04:03:40.995Z,9.20
2023-11-11T04:06:10.963Z,9.60
2023-11-11T04:08:41.008Z,9.60
2023-11-11T04:11:10.153Z,9.20
2023-11-11T04:13:42.102Z,8.90
2023-11-11T04:16:15.022Z,9.50
2023-11-11T04:18:43.340Z,8.70
2023-11-11T04:21:13.175Z,9.10
2023-11-11T04:23:44.252Z,9.40
2023-11-11T04:26:12.191Z,10.20
2023-11-11T04:28:44.246Z,10.40
2023-11-11T04:31:13.608Z,9.30
2023-11-11T04:33:41.554Z,8.80
2023-11-11T04:36:09.583Z,9.00
2023-11-11T04:38:38.686Z,9.10
2023-11-11T04:41:06.939Z,8.80
2023-11-11T04:43:36.172Z,9.20
2023-11-11T04:46:04.495Z,9.30
2023-11-11T04:48:32.687Z,9.30
2023-11-11T04:51:01.207Z,8.90
2023-11-11T04:53:29.472Z,8.30
2023-11-11T04:55:57.626Z,9.70
2023-11-11T04:58:25.935Z,9.80
2023-11-11T05:00:54.117Z,8.40
2023-11-11T05:03:22.348Z,8.50
2023-11-11T05:05:50.539Z,9.40
2023-11-11T05:08:18.787Z,8.90
2023-11-11T05:10:47.153Z,8.60
2023-11-11T05:13:16.014Z,7.90
2023-11-11T05:15:47.038Z,8.20
2023-11-11T05:18:15.466Z,9.30
2023-11-11T05:20:43.512Z,8.70
2023-11-11T05:23:11.895Z,9.10
2023-11-11T05:25:40.196Z,8.30
2023-11-11T05:28:08.811Z,8.70
2023-11-11T05:30:37.142Z,9.00
2023-11-11T05:33:06.682Z,9.20
2023-11-11T05:35:35.003Z,9.20
2023-11-11T05:38:03.038Z,8.90
2023-11-11T05:40:31.432Z,9.50
2023-11-11T05:43:01.642Z,9.50
2023-11-11T05:45:30.095Z,9.70
2023-11-11T05:47:58.254Z,9.60
2023-11-11T05:50:26.371Z,9.40
2023-11-11T05:52:54.509Z,10.50
2023-11-11T05:55:22.496Z,10.20
2023-11-11T05:57:50.675Z,9.90
2023-11-11T06:00:19.420Z,10.50
2023-11-11T06:02:47.696Z,9.90
2023-11-11T06:05:15.968Z,10.50
2023-11-11T06:07:43.973Z,10.30
2023-11-11T06:10:12.768Z,10.20
2023-11-11T06:12:41.082Z,10.60
2023-11-11T06:15:09.584Z,10.00
2023-11-11T06:17:37.942Z,10.40
2023-11-11T06:20:09.344Z,10.90
2023-11-11T06:22:37.555Z,10.50
2023-11-11T06:25:07.055Z,10.80
2023-11-11T06:27:35.885Z,11.60
2023-11-11T06:30:09.716Z,11.20
2023-11-11T06:32:38.050Z,12.40
2023-11-11T06:35:09.735Z,11.70
2023-11-11T06:37:37.988Z,11.60
2023-11-11T06:40:08.446Z,11.50
2023-11-11T06:42:41.962Z,11.60
2023-11-11T06:45:16.341Z,11.90
2023-11-11T06:47:44.788Z,11.40
2023-11-11T06:50:13.186Z,11.80
2023-11-11T06:52:41.338Z,12.10
2023-11-11T06:55:10.938Z,11.00
2023-11-11T06:57:38.985Z,12.00
2023-11-11T07:00:11.704Z,11.00
2023-11-11T07:02:39.895Z,11.30
2023-11-11T07:05:11.429Z,11.50
2023-11-11T07:07:42.985Z,13.40
2023-11-11T07:10:13.318Z,13.60
2023-11-11T07:12:42.427Z,12.20
2023-11-11T07:15:11.707Z,13.40
2023-11-11T07:17:42.963Z,12.80
2023-11-11T07:20:18.342Z,12.20
2023-11-11T07:22:46.909Z,12.40
2023-11-11T07:25:16.253Z,11.90
2023-11-11T07:27:45.077Z,12.80
2023-11-11T07:30:14.075Z,12.40
2023-11-11T07:32:53.211Z,11.80
2023-11-11T07:35:27.744Z,12.20
2023-11-11T07:37:56.329Z,13.00
2023-11-11T07:40:26.939Z,13.90
2023-11-11T07:42:58.075Z,12.00
2023-11-11T07:45:27.895Z,15.80
2023-11-11T07:47:56.983Z,14.30
2023-11-11T07:50:26.453Z,13.40
2023-11-11T07:52:56.663Z,12.10
2023-11-11T07:55:25.022Z,12.20
2023-11-11T08:00:25.849Z,13.80
2023-11-11T08:02:54.121Z,14.50
2023-11-11T08:05:24.671Z,14.30
2023-11-11T08:07:53.409Z,16.40
2023-11-11T08:10:22.977Z,17.20
2023-11-11T08:12:52.998Z,15.20
2023-11-11T08:15:21.686Z,15.90
2023-11-11T08:17:50.510Z,15.50
2023-11-11T08:20:19.886Z,15.30
2023-11-11T08:22:49.701Z,16.50
2023-11-11T08:25:17.872Z,16.70
2023-11-11T08:27:46.470Z,15.90
2023-11-11T08:30:14.711Z,16.00
2023-11-11T08:32:43.584Z,15.30
2023-11-11T08:35:15.866Z,14.60
2023-11-11T08:37:44.790Z,14.30
2023-11-11T08:40:14.695Z,13.50
2023-11-11T08:42:42.962Z,12.50
2023-11-11T08:45:14.905Z,13.50
2023-11-11T08:47:43.166Z,12.60
2023-11-11T08:50:13.153Z,12.50
2023-11-11T08:52:44.122Z,11.90
2023-11-11T08:55:13.267Z,11.40
2023-11-11T08:57:41.512Z,11.20
2023-11-11T09:00:13.283Z,10.50
2023-11-11T09:02:41.492Z,10.80
2023-11-11T09:05:11.125Z,12.90
2023-11-11T09:07:39.252Z,14.50
2023-11-11T09:10:07.849Z,13.80
2023-11-11T09:12:38.042Z,14.80
2023-11-11T09:15:06.706Z,12.60
2023-11-11T09:17:34.880Z,12.50
2023-11-11T09:20:03.004Z,12.30
2023-11-11T09:22:30.978Z,10.60
2023-11-11T09:24:59.215Z,10.70
2023-11-11T09:27:27.573Z,11.50
2023-11-11T09:29:55.656Z,11.10
2023-11-11T09:32:23.826Z,11.90
2023-11-11T09:34:52.009Z,12.00
2023-11-11T09:37:20.185Z,12.00
2023-11-11T09:39:48.393Z,11.70
2023-11-11T09:42:16.676Z,11.80
2023-11-11T09:47:19.712Z,11.40
2023-11-11T09:49:48.024Z,11.30
2023-11-11T09:52:17.392Z,11.90
2023-11-11T09:54:47.582Z,10.10
2023-11-11T09:57:18.363Z,10.80
2023-11-11T09:59:47.986Z,12.20
2023-11-11T10:02:16.723Z,12.00
2023-11-11T10:04:44.894Z,12.70
2023-11-11T10:07:13.758Z,11.50
2023-11-11T10:09:42.956Z,12.50
2023-11-11T10:12:11.497Z,12.40
2023-11-11T10:14:42.719Z,11.80
2023-11-11T10:17:12.584Z,11.40
2023-11-11T10:19:54.601Z,13.10
2023-11-11T10:22:27.409Z,12.20
2023-11-11T10:24:57.836Z,11.80
2023-11-11T10:27:29.042Z,12.70
2023-11-11T10:29:58.005Z,12.70
2023-11-11T10:32:28.874Z,13.90
2023-11-11T10:34:58.369Z,13.00
2023-11-11T10:37:26.512Z,14.10
2023-11-11T10:39:54.568Z,12.60
2023-11-11T10:42:23.164Z,12.30
2023-11-11T10:44:51.956Z,12.10
2023-11-11T10:47:20.269Z,12.80
2023-11-11T10:49:48.965Z,13.00
2023-11-11T10:52:20.212Z,12.80
2023-11-11T10:54:52.443Z,12.50
2023-11-11T10:57:21.705Z,13.00
2023-11-11T10:59:49.962Z,12.90
2023-11-11T11:02:19.395Z,13.60
2023-11-11T11:04:54.927Z,13.10
2023-11-11T11:07:29.364Z,14.70
2023-11-11T11:10:04.641Z,13.40
2023-11-11T11:12:39.752Z,13.20
2023-11-11T11:15:14.447Z,14.60
2023-11-11T11:17:45.794Z,13.20
2023-11-11T11:20:19.274Z,13.50
2023-11-11T11:22:50.720Z,13.40
2023-11-11T11:25:40.250Z,13.70
2023-11-11T11:28:11.176Z,13.00
2023-11-11T11:30:59.707Z,12.90
2023-11-11T11:33:32.569Z,12.20
2023-11-11T11:36:05.680Z,14.40
2023-11-11T11:38:39.837Z,13.50
2023-11-11T11:41:20.663Z,13.80
2023-11-11T11:43:54.435Z,12.60
2023-11-11T11:46:23.108Z,14.00
2023-11-11T11:48:52.291Z,12.00
2023-11-11T11:51:21.349Z,13.30
2023-11-11T11:53:54.704Z,13.20
2023-11-11T11:56:31.222Z,13.50
2023-11-11T11:59:03.367Z,12.70
2023-11-11T12:01:35.630Z,12.70
2023-11-11T12:04:05.160Z,13.10
2023-11-11T12:06:40.017Z,14.10
2023-11-11T12:09:13.359Z,12.70
2023-11-11T12:11:41.456Z,14.30
2023-11-11T12:14:10.806Z,13.80
2023-11-11T12:16:44.360Z,13.10
2023-11-11T12:19:18.273Z,13.90
2023-11-11T12:21:48.829Z,14.10
2023-11-11T12:24:18.384Z,13.70
2023-11-11T12:26:50.060Z,12.80
2023-11-11T12:29:20.373Z,12.90
2023-11-11T12:31:49.659Z,14.70
2023-11-11T12:34:26.196Z,14.00
2023-11-11T12:36:55.247Z,16.00
2023-11-11T12:39:26.650Z,15.30
2023-11-11T12:41:58.271Z,15.80
2023-11-11T12:44:27.413Z,16.60
2023-11-11T12:47:00.075Z,17.00
2023-11-11T12:49:29.895Z,15.80
2023-11-11T12:52:00.813Z,16.00
2023-11-11T12:54:32.809Z,17.00
2023-11-11T12:57:01.771Z,16.30
2023-11-11T12:59:29.831Z,16.20
2023-11-11T13:02:02.322Z,15.10
2023-11-11T13:04:34.366Z,14.70
2023-11-11T13:07:02.846Z,15.10
2023-11-11T13:09:42.940Z,15.70
2023-11-11T13:12:12.055Z,16.20
2023-11-11T13:14:44.805Z,16.80
2023-11-11T13:17:13.643Z,16.10
2023-11-11T13:19:41.901Z,16.20
2023-11-11T13:22:10.808Z,15.80
2023-11-11T13:24:39.262Z,17.30
2023-11-11T13:27:08.835Z,17.60
2023-11-11T13:29:37.307Z,18.20
2023-11-11T13:32:05.999Z,17.30
2023-11-11T13:34:34.936Z,17.50
2023-11-11T13:37:12.868Z,16.00
2023-11-11T13:39:52.741Z,17.40
2023-11-11T13:42:22.728Z,16.30
2023-11-11T13:44:51.544Z,17.00
2023-11-11T13:47:21.610Z,18.40
2023-11-11T13:49:49.705Z,18.10
2023-11-11T13:52:17.745Z,18.20
2023-11-11T13:54:46.103Z,17.80
2023-11-11T13:57:16.750Z,17.70
2023-11-11T13:59:44.912Z,16.70
2023-11-11T14:02:13.761Z,16.40
2023-11-11T14:04:47.142Z,17.10
2023-11-11T14:07:15.315Z,17.20
2023-11-11T14:09:43.323Z,16.90
2023-11-11T14:12:13.608Z,18.70
2023-11-11T14:14:43.044Z,20.20
2023-11-11T14:17:23.734Z,20.10
2023-11-11T14:19:53.473Z,20.50
2023-11-11T14:22:23.603Z,19.50
2023-11-11T14:24:51.763Z,20.30
2023-11-11T14:27:19.852Z,18.70
2023-11-11T14:29:48.614Z,21.10
2023-11-11T14:32:20.522Z,20.90
2023-11-11T14:34:48.617Z,20.40
2023-11-11T14:37:16.662Z,19.90
2023-11-11T14:39:46.666Z,20.60
2023-11-11T14:42:15.754Z,19.10
2023-11-11T14:44:43.808Z,20.20
2023-11-11T14:47:12.133Z,21.90
2023-11-11T14:49:40.229Z,21.90
2023-11-11T14:52:10.908Z,22.30
2023-11-11T14:54:41.608Z,23.60
2023-11-11T14:57:13.607Z,23.10
2023-11-11T14:59:41.653Z,23.10
2023-11-11T15:02:09.922Z,25.00
2023-11-11T15:04:38.215Z,26.30
2023-11-11T15:07:06.750Z,26.40
2023-11-11T15:09:34.985Z,24.60
2023-11-11T15:12:02.973Z,25.20
2023-11-11T15:14:31.207Z,24.40
2023-11-11T15:17:01.366Z,23.40
2023-11-11T15:19:29.514Z,23.80
2023-11-11T15:21:57.975Z,22.70
2023-11-11T15:24:29.543Z,22.00
2023-11-11T15:26:57.461Z,22.90
2023-11-11T15:29:25.374Z,22.90
2023-11-11T15:31:53.372Z,24.20
2023-11-11T15:34:21.651Z,24.50
2023-11-11T15:36:50.201Z,24.80
2023-11-11T15:39:24.026Z,26.50
2023-11-11T15:44:20.494Z,26.80
2023-11-11T15:46:51.569Z,26.20
2023-11-11T15:49:21.445Z,25.20
2023-11-11T15:51:51.063Z,26.00
2023-11-11T15:54:19.191Z,25.90
2023-11-11T15:56:49.682Z,25.60
2023-11-11T15:59:19.090Z,25.20
2023-11-11T16:01:47.371Z,27.40
2023-11-11T16:04:16.647Z,28.90
2023-11-11T16:06:44.575Z,28.00
2023-11-11T16:09:18.014Z,26.20
2023-11-11T16:11:46.382Z,26.30
2023-11-11T16:14:14.597Z,25.50
2023-11-11T16:16:42.818Z,26.70
2023-11-11T16:19:11.144Z,27.50
2023-11-11T16:21:39.270Z,26.30
2023-11-11T16:24:20.496Z,27.90
2023-11-11T16:26:55.766Z,29.70
2023-11-11T16:29:23.963Z,31.00
2023-11-11T16:31:52.323Z,28.90
2023-11-11T16:34:22.346Z,26.60
2023-11-11T16:36:50.525Z,25.20
2023-11-11T16:39:20.433Z,24.90
2023-11-11T16:41:52.279Z,24.30
2023-11-11T16:44:22.028Z,25.10
2023-11-11T16:46:50.114Z,24.20
2023-11-11T16:49:18.232Z,24.10
2023-11-11T16:51:46.967Z,24.50
2023-11-11T16:54:15.155Z,23.60
2023-11-11T16:56:43.628Z,23.60
2023-11-11T16:59:13.162Z,22.30
2023-11-11T17:01:41.473Z,23.40
2023-11-11T17:04:10.520Z,28.40
2023-11-11T17:06:38.620Z,26.80
2023-11-11T17:09:12.265Z,30.30
2023-11-11T17:14:12.758Z,33.10
2023-11-11T17:16:42.268Z,37.50
2023-11-11T17:19:10.708Z,39.70
2023-11-11T17:21:38.801Z,45.50
2023-11-11T17:24:07.821Z,42.00
2023-11-11T17:26:38.361Z,31.20
2023-11-11T17:29:06.470Z,26.30
2023-11-11T17:31:35.044Z,24.20
2023-11-11T17:34:03.300Z,28.50
2023-11-11T17:36:32.717Z,24.70
2023-11-11T17:39:00.983Z,26.30
2023-11-11T17:41:29.083Z,26.60
2023-11-11T17:43:57.586Z,24.80
2023-11-11T17:46:25.630Z,25.10
2023-11-11T17:48:54.879Z,23.80
2023-11-11T17:51:23.548Z,23.40
2023-11-11T17:53:51.930Z,20.10
2023-11-11T17:56:24.030Z,21.10
2023-11-11T17:58:52.597Z,20.30
2023-11-11T18:01:21.058Z,20.70
2023-11-11T18:03:49.492Z,18.90
2023-11-11T18:06:17.751Z,15.80
2023-11-11T18:08:47.074Z,14.50
2023-11-11T18:11:15.582Z,14.30
2023-11-11T18:13:43.705Z,14.50
2023-11-11T18:16:18.758Z,15.40
2023-11-11T18:18:47.516Z,15.10
2023-11-11T18:21:16.926Z,13.50
2023-11-11T18:23:47.741Z,13.70
2023-11-11T18:26:17.395Z,14.10
2023-11-11T18:28:47.712Z,14.10
2023-11-11T18:31:18.503Z,13.40
2023-11-11T18:33:46.902Z,13.50
2023-11-11T18:36:14.934Z,14.00
2023-11-11T18:38:44.290Z,11.90
2023-11-11T18:41:12.821Z,12.30
2023-11-11T18:43:40.920Z,11.60
2023-11-11T18:46:15.556Z,10.10
2023-11-11T18:48:43.626Z,10.50
2023-11-11T18:51:11.758Z,12.70
2023-11-11T18:53:40.079Z,10.90
2023-11-11T18:56:08.409Z,7.40
2023-11-11T18:58:36.610Z,6.70
2023-11-11T19:01:05.950Z,6.60
2023-11-11T19:03:36.071Z,7.40
2023-11-11T19:06:05.404Z,8.30
2023-11-11T19:08:33.469Z,7.60
2023-11-11T19:11:01.770Z,7.70
2023-11-11T19:13:29.655Z,9.70
2023-11-11T19:15:58.424Z,10.60
2023-11-11T19:18:26.408Z,8.40
2023-11-11T19:20:54.400Z,10.50
2023-11-11T19:23:23.045Z,8.40
2023-11-11T19:25:51.522Z,12.30
2023-11-11T19:28:19.474Z,11.60
2023-11-11T19:30:47.622Z,12.90
2023-11-11T19:33:16.140Z,12.70
2023-11-11T19:35:44.283Z,11.50
2023-11-11T19:38:12.392Z,11.30
2023-11-11T19:40:41.402Z,11.10
2023-11-11T19:43:09.569Z,9.00
2023-11-11T19:45:38.894Z,8.80
2023-11-11T19:48:07.331Z,8.90
2023-11-11T19:50:35.317Z,6.30
2023-11-11T19:53:03.302Z,7.30
2023-11-11T19:55:31.267Z,6.60
2023-11-11T19:57:59.730Z,6.30
2023-11-11T20:00:28.099Z,7.40
2023-11-11T20:02:56.023Z,6.30
2023-11-11T20:05:25.932Z,5.60
2023-11-11T20:07:54.270Z,6.40
2023-11-11T20:10:22.348Z,5.40
2023-11-11T20:12:55.222Z,4.60
2023-11-11T20:15:23.516Z,4.80
2023-11-11T20:17:51.794Z,5.50
2023-11-11T20:20:19.853Z,5.20
2023-11-11T20:22:48.219Z,5.60
2023-11-11T20:25:24.562Z,7.80
2023-11-11T20:27:56.388Z,6.20
2023-11-11T20:30:26.697Z,5.20
2023-11-11T20:32:54.924Z,5.30
2023-11-11T20:35:23.039Z,4.70
2023-11-11T20:37:51.032Z,4.70
2023-11-11T20:40:19.580Z,5.40
2023-11-11T20:42:51.670Z,6.20
2023-11-11T20:45:19.630Z,11.40
2023-11-11T20:47:47.700Z,12.50
2023-11-11T20:50:16.484Z,8.50
2023-11-11T20:52:45.869Z,7.60
2023-11-11T20:55:15.345Z,6.90
2023-11-11T20:57:43.631Z,5.70
2023-11-11T21:00:13.455Z,6.20
2023-11-11T21:02:42.415Z,6.00
2023-11-11T21:05:19.124Z,8.90
2023-11-11T21:07:47.472Z,8.60
2023-11-11T21:10:17.910Z,6.40
2023-11-11T21:12:50.853Z,5.80
2023-11-11T21:15:22.419Z,5.70
2023-11-11T21:17:51.834Z,5.90
2023-11-11T21:20:19.813Z,5.70
2023-11-11T21:22:51.284Z,5.50
2023-11-11T21:25:21.796Z,6.00
2023-11-11T21:27:49.933Z,5.60
2023-11-11T21:30:18.482Z,6.00
2023-11-11T21:32:47.332Z,6.80
2023-11-11T21:35:15.412Z,6.80
2023-11-11T21:37:43.516Z,7.70
2023-11-11T21:40:12.127Z,7.00
2023-11-11T21:42:40.382Z,7.10
2023-11-11T21:45:08.638Z,7.50
2023-11-11T21:47:38.000Z,7.30
2023-11-11T21:50:06.908Z,7.00
2023-11-11T21:52:38.147Z,6.60
2023-11-11T21:55:07.150Z,6.60
2023-11-11T21:57:37.753Z,6.30
2023-11-11T22:00:11.081Z,6.50
2023-11-11T22:02:39.323Z,7.00
2023-11-11T22:05:08.159Z,6.10
2023-11-11T22:07:36.207Z,6.90
2023-11-11T22:10:06.699Z,5.20
2023-11-11T22:12:34.703Z,4.40
2023-11-11T22:15:03.610Z,4.50
2023-11-11T22:17:33.202Z,4.90
2023-11-11T22:20:01.914Z,4.40
2023-11-11T22:22:29.874Z,4.10
2023-11-11T22:24:57.806Z,4.20
2023-11-11T22:27:27.110Z,4.40
2023-11-11T22:29:55.320Z,4.00
2023-11-11T22:32:24.187Z,4.40
2023-11-11T22:34:52.056Z,4.30
2023-11-11T22:37:20.823Z,4.80
2023-11-11T22:39:49.232Z,4.50
2023-11-11T22:42:17.122Z,3.10
2023-11-11T22:44:45.064Z,2.80
2023-11-11T22:47:13.369Z,2.50
2023-11-11T22:49:41.792Z,2.00
2023-11-11T22:52:09.916Z,1.90
2023-11-11T22:54:37.849Z,2.10
2023-11-11T22:57:05.938Z,1.60
2023-11-11T22:59:34.022Z,1.70
2023-11-11T23:02:02.020Z,1.70
2023-11-11T23:04:30.106Z,1.60
2023-11-11T23:06:58.037Z,1.60
2023-11-11T23:09:26.016Z,1.40
2023-11-11T23:11:55.045Z,1.60
2023-11-11T23:14:23.043Z,1.10
2023-11-11T23:16:51.359Z,1.20
2023-11-11T23:19:19.473Z,1.70
2023-11-11T23:21:47.734Z,1.10
2023-11-11T23:24:15.860Z,1.20
2023-11-11T23:26:44.279Z,1.00
2023-11-11T23:29:13.081Z,1.00
2023-11-11T23:31:43.312Z,0.80
2023-11-11T23:34:12.457Z,1.00
2023-11-11T23:36:40.564Z,1.00
2023-11-11T23:39:09.289Z,0.90
2023-11-11T23:41:37.485Z,0.90
2023-11-11T23:44:10.103Z,0.70
2023-11-11T23:46:43.963Z,0.70
2023-11-11T23:49:12.561Z,0.90
2023-11-11T23:51:40.533Z,0.80
2023-11-11T23:54:08.978Z,0.90
2023-11-11T23:56:36.991Z,1.10
2023-11-11T23:59:05.430Z,1.20
